createdAt,value
2022-09-30T00:00:35.385Z,96599.81
2022-09-30T00:03:01.968Z,96592.88
2022-09-30T00:05:28.547Z,96590.22
2022-09-30T00:07:56.486Z,96591.97
2022-09-30T00:10:23.125Z,96604.00
2022-09-30T00:12:51.497Z,96593.41
2022-09-30T00:15:18.413Z,96590.38
2022-09-30T00:17:44.971Z,96597.19
2022-09-30T00:20:11.549Z,96573.72
2022-09-30T00:22:38.107Z,96581.69
2022-09-30T00:25:06.440Z,96584.78
2022-09-30T00:27:33.045Z,96588.31
2022-09-30T00:29:59.596Z,96585.50
2022-09-30T00:32:26.288Z,96592.97
2022-09-30T00:34:52.869Z,96592.16
2022-09-30T00:37:19.464Z,96596.25
2022-09-30T00:39:46.005Z,96595.72
2022-09-30T00:42:15.498Z,96601.00
2022-09-30T00:44:47.775Z,96594.38
2022-09-30T00:47:38.077Z,96593.75
2022-09-30T00:50:12.102Z,96602.16
2022-09-30T00:52:38.997Z,96601.00
2022-09-30T00:55:08.758Z,96597.75
2022-09-30T00:57:37.163Z,96607.44
2022-09-30T01:00:05.515Z,96613.63
2022-09-30T01:02:32.092Z,96614.78
2022-09-30T01:04:58.744Z,96615.91
2022-09-30T01:07:25.697Z,96621.59
2022-09-30T01:09:52.755Z,96624.34
2022-09-30T01:12:23.208Z,96619.59
2022-09-30T01:14:53.566Z,96609.50
2022-09-30T01:17:32.873Z,96612.25
2022-09-30T01:20:25.220Z,96619.03
2022-09-30T01:23:08.673Z,96616.59
2022-09-30T01:25:58.532Z,96626.09
2022-09-30T01:29:00.318Z,96623.06
2022-09-30T01:31:41.866Z,96627.56
2022-09-30T01:34:16.142Z,96637.63
2022-09-30T01:37:00.119Z,96631.66
2022-09-30T01:39:37.376Z,96638.66
2022-09-30T01:42:13.157Z,96641.09
2022-09-30T01:44:48.364Z,96638.84
2022-09-30T01:47:22.459Z,96635.91
2022-09-30T01:49:54.503Z,96637.00
2022-09-30T01:52:23.997Z,96621.16
2022-09-30T01:54:59.005Z,96631.56
2022-09-30T01:57:30.629Z,96622.28
2022-09-30T02:00:01.801Z,96637.78
2022-09-30T02:02:33.484Z,96640.00
2022-09-30T02:05:02.831Z,96646.84
2022-09-30T02:07:36.059Z,96642.16
2022-09-30T02:10:09.673Z,96661.22
2022-09-30T02:12:50.208Z,96667.81
2022-09-30T02:15:21.209Z,96671.38
2022-09-30T02:17:53.269Z,96669.16
2022-09-30T02:20:24.754Z,96657.25
2022-09-30T02:23:00.548Z,96662.56
2022-09-30T02:25:34.112Z,96663.97
2022-09-30T02:28:05.199Z,96668.06
2022-09-30T02:30:33.364Z,96658.66
2022-09-30T02:33:05.983Z,96659.56
2022-09-30T02:35:36.030Z,96663.25
2022-09-30T02:38:06.494Z,96656.25
2022-09-30T02:40:38.383Z,96656.03
2022-09-30T02:43:05.343Z,96666.81
2022-09-30T02:45:40.501Z,96669.75
2022-09-30T02:48:21.183Z,96667.34
2022-09-30T02:50:52.130Z,96664.97
2022-09-30T02:53:25.808Z,96664.44
2022-09-30T02:56:12.374Z,96667.44
2022-09-30T02:58:41.336Z,96665.59
2022-09-30T03:01:11.429Z,96659.88
2022-09-30T03:03:43.007Z,96655.63
2022-09-30T03:06:10.940Z,96651.22
2022-09-30T03:08:37.832Z,96656.44
2022-09-30T03:11:05.590Z,96653.34
2022-09-30T03:14:16.834Z,96648.66
2022-09-30T03:17:18.987Z,96659.28
2022-09-30T03:20:08.887Z,96644.72
2022-09-30T03:22:54.592Z,96669.06
2022-09-30T03:25:34.954Z,96668.25
2022-09-30T03:28:14.573Z,96674.06
2022-09-30T03:30:47.479Z,96682.72
2022-09-30T03:33:22.504Z,96669.06
2022-09-30T03:35:59.801Z,96672.31
2022-09-30T03:38:36.559Z,96689.53
2022-09-30T03:41:11.339Z,96686.28
2022-09-30T03:43:48.471Z,96679.75
2022-09-30T03:46:21.266Z,96673.34
2022-09-30T03:48:50.712Z,96683.31
2022-09-30T03:51:19.043Z,96692.69
2022-09-30T03:53:45.723Z,96702.75
2022-09-30T03:56:12.820Z,96691.09
2022-09-30T03:58:43.356Z,96698.03
2022-09-30T04:01:17.010Z,96710.34
2022-09-30T04:03:43.563Z,96703.53
2022-09-30T04:06:12.926Z,96710.06
2022-09-30T04:08:40.786Z,96715.50
2022-09-30T04:11:07.303Z,96723.25
2022-09-30T04:13:33.891Z,96728.44
2022-09-30T04:16:00.876Z,96732.81
2022-09-30T04:18:27.473Z,96725.84
2022-09-30T04:20:54.118Z,96730.53
2022-09-30T04:23:20.765Z,96730.75
2022-09-30T04:25:53.729Z,96723.00
2022-09-30T04:28:20.983Z,96724.78
2022-09-30T04:30:47.576Z,96720.59
2022-09-30T04:33:14.160Z,96730.47
2022-09-30T04:35:40.720Z,96738.63
2022-09-30T04:38:07.242Z,96738.53
2022-09-30T04:40:36.685Z,96733.94
2022-09-30T04:43:04.722Z,96720.59
2022-09-30T04:45:31.396Z,96735.91
2022-09-30T04:47:57.925Z,96734.38
2022-09-30T04:50:24.527Z,96741.81
2022-09-30T04:52:51.052Z,96747.63
2022-09-30T04:55:18.152Z,96754.56
2022-09-30T04:57:45.033Z,96753.22
2022-09-30T05:00:13.700Z,96755.66
2022-09-30T05:02:42.979Z,96754.66
2022-09-30T05:05:09.696Z,96752.41
2022-09-30T05:07:36.251Z,96738.53
2022-09-30T05:10:02.864Z,96742.94
2022-09-30T05:12:29.426Z,96743.66
2022-09-30T05:14:55.964Z,96747.22
2022-09-30T05:17:23.925Z,96759.22
2022-09-30T05:19:50.456Z,96766.47
2022-09-30T05:22:17.039Z,96763.81
2022-09-30T05:24:43.636Z,96755.97
2022-09-30T05:27:10.205Z,96774.63
2022-09-30T05:29:36.753Z,96775.22
2022-09-30T05:32:03.367Z,96776.44
2022-09-30T05:34:31.242Z,96772.47
2022-09-30T05:36:57.763Z,96787.16
2022-09-30T05:39:24.391Z,96780.03
2022-09-30T05:41:51.027Z,96787.78
2022-09-30T05:44:17.551Z,96794.50
2022-09-30T05:46:44.148Z,96809.28
2022-09-30T05:49:10.905Z,96805.13
2022-09-30T05:51:38.755Z,96814.00
2022-09-30T05:54:05.317Z,96823.16
2022-09-30T05:56:31.898Z,96823.28
2022-09-30T05:58:58.406Z,96823.38
2022-09-30T06:01:24.956Z,96822.84
2022-09-30T06:03:51.475Z,96811.97
2022-09-30T06:06:18.464Z,96830.09
2022-09-30T06:08:46.426Z,96834.56
2022-09-30T06:11:14.931Z,96831.31
2022-09-30T06:13:42.499Z,96840.09
2022-09-30T06:16:10.322Z,96840.94
2022-09-30T06:18:37.571Z,96852.31
2022-09-30T06:21:05.393Z,96848.94
2022-09-30T06:23:32.647Z,96843.34
2022-09-30T06:26:01.998Z,96855.47
2022-09-30T06:28:28.714Z,96852.00
2022-09-30T06:30:55.266Z,96861.81
2022-09-30T06:33:22.140Z,96867.94
2022-09-30T06:35:48.683Z,96866.63
2022-09-30T06:38:15.637Z,96866.19
2022-09-30T06:40:42.533Z,96869.88
2022-09-30T06:43:10.990Z,96866.31
2022-09-30T06:45:38.260Z,96876.69
2022-09-30T06:48:05.991Z,96879.44
2022-09-30T06:50:33.268Z,96882.72
2022-09-30T06:53:00.784Z,96875.19
2022-09-30T06:55:27.854Z,96877.53
2022-09-30T06:57:54.656Z,96871.72
2022-09-30T07:00:23.116Z,96875.59
2022-09-30T07:02:49.823Z,96877.84
2022-09-30T07:05:16.804Z,96875.38
2022-09-30T07:07:43.467Z,96870.94
2022-09-30T07:10:10.559Z,96880.59
2022-09-30T07:12:37.104Z,96876.53
2022-09-30T07:15:03.940Z,96876.34
2022-09-30T07:17:31.797Z,96880.72
2022-09-30T07:19:58.298Z,96881.81
2022-09-30T07:22:24.872Z,96887.34
2022-09-30T07:24:51.411Z,96893.78
2022-09-30T07:27:17.991Z,96899.53
2022-09-30T07:30:07.630Z,96897.38
2022-09-30T07:32:33.059Z,96898.03
2022-09-30T07:34:59.619Z,96904.19
2022-09-30T07:37:26.911Z,96895.19
2022-09-30T07:39:54.043Z,96906.41
2022-09-30T07:42:22.812Z,96909.44
2022-09-30T07:44:50.371Z,96913.94
2022-09-30T07:47:16.918Z,96911.38
2022-09-30T07:49:45.614Z,96917.25
2022-09-30T07:52:13.065Z,96913.59
2022-09-30T07:54:44.273Z,96913.09
2022-09-30T07:57:13.544Z,96927.28
2022-09-30T07:59:41.369Z,96936.16
2022-09-30T08:02:13.461Z,96930.25
2022-09-30T08:04:43.635Z,96937.09
2022-09-30T08:07:13.274Z,96937.84
2022-09-30T08:09:39.871Z,96941.56
2022-09-30T08:12:06.521Z,96942.75
2022-09-30T08:14:33.441Z,96938.19
2022-09-30T08:17:00.580Z,96940.78
2022-09-30T08:19:29.295Z,96938.22
2022-09-30T08:21:56.282Z,96937.16
2022-09-30T08:24:25.464Z,96952.63
2022-09-30T08:26:52.767Z,96946.28
2022-09-30T08:29:35.679Z,96947.00
2022-09-30T08:32:06.159Z,96945.09
2022-09-30T08:34:32.820Z,96947.28
2022-09-30T08:36:59.802Z,96949.94
2022-09-30T08:39:27.751Z,96958.06
2022-09-30T08:42:19.046Z,96949.28
2022-09-30T08:44:52.382Z,96957.31
2022-09-30T08:47:39.407Z,96965.44
2022-09-30T08:50:15.788Z,96960.25
2022-09-30T08:52:48.965Z,96964.94
2022-09-30T08:55:22.879Z,96971.47
2022-09-30T08:57:51.427Z,96973.28
2022-09-30T09:00:19.109Z,96971.44
2022-09-30T09:02:49.469Z,96974.56
2022-09-30T09:05:25.743Z,96972.81
2022-09-30T09:08:01.172Z,96979.66
2022-09-30T09:10:36.823Z,96966.09
2022-09-30T09:13:13.975Z,96972.00
2022-09-30T09:15:50.527Z,96978.00
2022-09-30T09:18:33.834Z,96973.25
2022-09-30T09:21:14.624Z,96984.78
2022-09-30T09:23:41.766Z,96980.97
2022-09-30T09:26:14.360Z,96973.28
2022-09-30T09:28:51.777Z,96965.84
2022-09-30T09:31:20.961Z,96969.59
2022-09-30T09:33:47.778Z,96974.91
2022-09-30T09:36:25.977Z,96977.22
2022-09-30T09:39:07.689Z,96974.38
2022-09-30T09:41:42.507Z,96972.09
2022-09-30T09:44:23.036Z,96969.03
2022-09-30T09:46:53.781Z,96968.91
2022-09-30T09:49:29.947Z,96967.31
2022-09-30T09:52:16.220Z,96960.34
2022-09-30T09:54:44.684Z,96966.38
2022-09-30T09:57:15.080Z,96966.94
2022-09-30T09:59:56.536Z,96974.88
2022-09-30T10:02:25.249Z,96968.22
2022-09-30T10:04:52.275Z,96972.47
2022-09-30T10:07:20.304Z,96975.81
2022-09-30T10:09:46.850Z,96979.56
2022-09-30T10:12:30.510Z,96979.16
2022-09-30T10:15:00.995Z,96984.16
2022-09-30T10:17:29.459Z,96984.81
2022-09-30T10:20:00.679Z,96989.88
2022-09-30T10:22:29.047Z,96990.69
2022-09-30T10:25:19.757Z,97002.72
2022-09-30T10:27:56.502Z,96997.63
2022-09-30T10:30:37.111Z,97003.50
2022-09-30T10:33:04.537Z,97001.00
2022-09-30T10:35:31.309Z,97000.22
2022-09-30T10:37:59.612Z,97003.81
2022-09-30T10:40:29.012Z,97012.00
2022-09-30T10:42:58.098Z,97005.78
2022-09-30T10:45:32.882Z,97002.72
2022-09-30T10:48:04.985Z,97011.66
2022-09-30T10:50:31.570Z,97012.34
2022-09-30T10:53:01.479Z,97013.44
2022-09-30T10:55:32.615Z,97012.72
2022-09-30T10:58:21.191Z,97020.81
2022-09-30T11:00:50.637Z,97018.03
2022-09-30T11:03:23.474Z,97018.59
2022-09-30T11:05:50.344Z,97022.25
2022-09-30T11:08:22.068Z,97017.81
2022-09-30T11:10:53.745Z,97015.00
2022-09-30T11:13:27.450Z,97017.66
2022-09-30T11:16:01.239Z,97019.81
2022-09-30T11:18:35.082Z,97016.56
2022-09-30T11:21:06.748Z,97013.97
2022-09-30T11:23:38.365Z,97015.09
2022-09-30T11:26:12.055Z,97019.00
2022-09-30T11:28:49.931Z,97005.41
2022-09-30T11:31:29.943Z,97004.59
2022-09-30T11:34:08.501Z,97004.22
2022-09-30T11:36:43.096Z,97015.53
2022-09-30T11:39:32.969Z,97014.22
2022-09-30T11:42:07.681Z,97015.41
2022-09-30T11:44:38.182Z,97015.59
2022-09-30T11:47:29.232Z,97006.28
2022-09-30T11:50:21.696Z,96997.75
2022-09-30T11:52:56.415Z,96998.94
2022-09-30T11:55:43.570Z,96994.75
2022-09-30T11:58:39.383Z,96994.75
2022-09-30T12:01:13.203Z,96992.97
2022-09-30T12:03:44.644Z,96996.34
2022-09-30T12:06:14.689Z,96997.88
2022-09-30T12:08:48.010Z,96991.72
2022-09-30T12:11:20.955Z,96992.00
2022-09-30T12:13:52.123Z,97011.03
2022-09-30T12:16:24.558Z,97013.47
2022-09-30T12:18:55.322Z,97011.59
2022-09-30T12:21:26.516Z,97013.81
2022-09-30T12:23:59.289Z,97007.28
2022-09-30T12:26:26.226Z,97012.59
2022-09-30T12:29:01.142Z,97016.38
2022-09-30T12:31:53.097Z,97021.53
2022-09-30T12:34:36.887Z,97014.94
2022-09-30T12:37:16.108Z,96998.59
2022-09-30T12:40:08.742Z,97008.81
2022-09-30T12:43:00.524Z,97003.38
2022-09-30T12:46:03.797Z,96999.97
2022-09-30T12:48:38.358Z,96999.97
2022-09-30T12:51:06.089Z,96999.06
2022-09-30T12:53:35.307Z,97002.63
2022-09-30T12:56:04.447Z,96992.78
2022-09-30T12:58:34.677Z,97002.03
2022-09-30T13:01:05.358Z,96992.69
2022-09-30T13:03:46.535Z,96986.38
2022-09-30T13:06:15.309Z,96986.16
2022-09-30T13:08:44.461Z,96984.97
2022-09-30T13:11:34.504Z,96982.44
2022-09-30T13:14:14.726Z,96979.25
2022-09-30T13:17:18.426Z,96988.97
2022-09-30T13:19:47.885Z,96989.06
2022-09-30T13:22:50.831Z,96986.63
2022-09-30T13:25:17.384Z,96992.41
2022-09-30T13:27:45.565Z,96985.13
2022-09-30T13:30:48.883Z,96970.97
2022-09-30T13:33:42.034Z,96983.41
2022-09-30T13:36:19.387Z,96989.31
2022-09-30T13:38:45.922Z,96987.47
2022-09-30T13:41:18.367Z,96990.47
2022-09-30T13:43:49.580Z,96988.75
2022-09-30T13:46:24.194Z,96991.19
2022-09-30T13:48:54.279Z,97003.38
2022-09-30T13:51:25.227Z,96988.28
2022-09-30T13:53:55.454Z,96991.31
2022-09-30T13:56:24.916Z,96986.91
2022-09-30T13:59:25.932Z,96988.28
2022-09-30T14:02:07.140Z,96996.41
2022-09-30T14:04:54.516Z,96995.25
2022-09-30T14:07:44.785Z,97001.28
2022-09-30T14:10:28.409Z,97006.63
2022-09-30T14:13:12.800Z,97009.66
2022-09-30T14:15:57.506Z,97017.28
2022-09-30T14:18:37.342Z,97023.19
2022-09-30T14:21:26.673Z,97016.88
2022-09-30T14:23:59.727Z,97004.94
2022-09-30T14:26:44.196Z,97000.88
2022-09-30T14:29:20.548Z,96988.94
2022-09-30T14:31:47.947Z,96992.81
2022-09-30T14:34:17.579Z,97010.41
2022-09-30T14:36:45.069Z,97009.91
2022-09-30T14:39:18.193Z,97017.25
2022-09-30T14:41:50.031Z,97013.88
2022-09-30T14:44:17.483Z,97012.78
2022-09-30T14:46:46.853Z,97012.91
2022-09-30T14:49:18.434Z,97009.31
2022-09-30T14:51:48.382Z,97014.34
2022-09-30T14:54:19.463Z,97014.34
2022-09-30T14:56:46.679Z,97009.22
2022-09-30T14:59:17.866Z,97005.31
2022-09-30T15:01:46.457Z,97008.31
2022-09-30T15:04:16.284Z,97001.00
2022-09-30T15:06:45.870Z,97008.75
2022-09-30T15:09:20.519Z,97010.38
2022-09-30T15:11:47.097Z,97017.34
2022-09-30T15:14:17.223Z,97024.00
2022-09-30T15:16:48.460Z,97029.22
2022-09-30T15:19:21.282Z,97039.47
2022-09-30T15:21:48.509Z,97045.06
2022-09-30T15:24:18.966Z,97041.09
2022-09-30T15:26:46.893Z,97052.28
2022-09-30T15:29:14.289Z,97059.03
2022-09-30T15:31:45.104Z,97058.97
2022-09-30T15:34:20.450Z,97054.00
2022-09-30T15:36:58.265Z,97059.38
2022-09-30T15:39:29.359Z,97061.94
2022-09-30T15:41:56.185Z,97071.63
2022-09-30T15:44:37.952Z,97065.97
2022-09-30T15:47:06.627Z,97064.19
2022-09-30T15:49:44.555Z,97070.97
2022-09-30T15:52:29.650Z,97063.13
2022-09-30T15:54:58.186Z,97067.56
2022-09-30T15:57:46.886Z,97070.03
2022-09-30T16:00:35.969Z,97070.84
2022-09-30T16:03:24.564Z,97081.53
2022-09-30T16:05:53.975Z,97087.56
2022-09-30T16:08:24.979Z,97081.72
2022-09-30T16:10:55.868Z,97087.59
2022-09-30T16:13:25.450Z,97087.97
2022-09-30T16:15:53.209Z,97096.94
2022-09-30T16:18:23.890Z,97090.56
2022-09-30T16:20:57.586Z,97098.44
2022-09-30T16:23:29.705Z,97094.19
2022-09-30T16:26:20.467Z,97088.94
2022-09-30T16:28:47.037Z,97090.13
2022-09-30T16:31:13.863Z,97095.69
2022-09-30T16:33:42.623Z,97092.56
2022-09-30T16:36:10.133Z,97088.00
2022-09-30T16:38:36.672Z,97091.75
2022-09-30T16:41:04.068Z,97090.31
2022-09-30T16:43:32.371Z,97104.19
2022-09-30T16:45:59.263Z,97101.22
2022-09-30T16:48:26.462Z,97102.88
2022-09-30T16:51:00.993Z,97106.13
2022-09-30T16:53:27.679Z,97106.78
2022-09-30T16:55:54.218Z,97102.22
2022-09-30T16:58:20.720Z,97108.72
2022-09-30T17:00:49.140Z,97109.06
2022-09-30T17:03:18.249Z,97104.81
2022-09-30T17:05:46.528Z,97110.84
2022-09-30T17:08:16.057Z,97105.91
2022-09-30T17:10:43.821Z,97102.78
2022-09-30T17:13:10.546Z,97105.75
2022-09-30T17:15:37.137Z,97109.31
2022-09-30T17:18:07.391Z,97121.03
2022-09-30T17:20:34.612Z,97116.13
2022-09-30T17:23:06.288Z,97109.09
2022-09-30T17:25:33.811Z,97114.28
2022-09-30T17:28:00.733Z,97121.94
2022-09-30T17:30:27.300Z,97118.19
2022-09-30T17:32:53.853Z,97122.88
2022-09-30T17:35:21.827Z,97137.88
2022-09-30T17:37:48.335Z,97136.25
2022-09-30T17:40:14.914Z,97137.06
2022-09-30T17:42:41.412Z,97135.41
2022-09-30T17:45:09.237Z,97139.81
2022-09-30T17:47:35.778Z,97133.28
2022-09-30T17:50:04.790Z,97150.22
2022-09-30T17:52:32.631Z,97155.25
2022-09-30T17:54:59.151Z,97153.28
2022-09-30T17:57:25.684Z,97151.66
2022-09-30T17:59:52.343Z,97151.28
2022-09-30T18:02:18.883Z,97152.13
2022-09-30T18:04:45.511Z,97144.78
2022-09-30T18:07:12.020Z,97148.34
2022-09-30T18:09:39.920Z,97154.06
2022-09-30T18:12:06.874Z,97151.63
2022-09-30T18:14:33.923Z,97154.53
2022-09-30T18:17:00.518Z,97156.78
2022-09-30T18:19:27.028Z,97162.81
2022-09-30T18:21:53.544Z,97167.16
2022-09-30T18:24:20.218Z,97172.22
2022-09-30T18:26:48.111Z,97179.22
2022-09-30T18:29:14.750Z,97171.22
2022-09-30T18:31:41.326Z,97176.56
2022-09-30T18:34:08.765Z,97167.88
2022-09-30T18:36:35.389Z,97171.63
2022-09-30T18:39:01.994Z,97180.22
2022-09-30T18:41:29.763Z,97168.66
2022-09-30T18:43:58.121Z,97170.81
2022-09-30T18:46:25.017Z,97169.97
2022-09-30T18:48:51.541Z,97167.53
2022-09-30T18:51:18.096Z,97171.75
2022-09-30T18:53:44.643Z,97171.03
2022-09-30T18:56:11.163Z,97168.63
2022-09-30T18:58:37.692Z,97172.31
2022-09-30T19:01:05.920Z,97170.19
2022-09-30T19:03:32.877Z,97176.91
2022-09-30T19:05:59.470Z,97177.19
2022-09-30T19:08:26.165Z,97177.00
2022-09-30T19:10:53.205Z,97167.41
2022-09-30T19:13:19.761Z,97157.59
2022-09-30T19:15:46.274Z,97165.88
2022-09-30T19:18:14.152Z,97161.00
2022-09-30T19:20:40.678Z,97159.13
2022-09-30T19:23:07.231Z,97152.91
2022-09-30T19:25:34.199Z,97156.81
2022-09-30T19:28:01.240Z,97162.63
2022-09-30T19:30:27.848Z,97161.63
2022-09-30T19:32:55.782Z,97161.84
2022-09-30T19:35:33.432Z,97156.25
2022-09-30T19:38:04.271Z,97162.09
2022-09-30T19:40:30.846Z,97160.66
2022-09-30T19:42:57.748Z,97154.84
2022-09-30T19:45:25.852Z,97151.69
2022-09-30T19:47:53.049Z,97149.47
2022-09-30T19:50:19.809Z,97150.06
2022-09-30T19:52:55.561Z,97151.19
2022-09-30T19:55:23.151Z,97160.88
2022-09-30T19:57:49.692Z,97160.38
2022-09-30T20:00:16.397Z,97153.53
2022-09-30T20:02:42.922Z,97150.56
2022-09-30T20:05:09.836Z,97144.09
2022-09-30T20:07:36.543Z,97142.47
2022-09-30T20:10:05.552Z,97138.78
2022-09-30T20:12:32.111Z,97150.72
2022-09-30T20:14:58.865Z,97143.66
2022-09-30T20:17:25.381Z,97148.16
2022-09-30T20:19:51.913Z,97132.38
2022-09-30T20:22:18.505Z,97144.31
2022-09-30T20:24:45.045Z,97149.69
2022-09-30T20:27:12.895Z,97149.78
2022-09-30T20:29:39.394Z,97156.16
2022-09-30T20:32:05.968Z,97156.44
2022-09-30T20:34:36.664Z,97156.25
2022-09-30T20:37:05.073Z,97147.84
2022-09-30T20:39:31.551Z,97153.84
2022-09-30T20:41:58.054Z,97151.03
2022-09-30T20:44:25.927Z,97153.00
2022-09-30T20:46:52.438Z,97156.03
2022-09-30T20:49:18.935Z,97161.91
2022-09-30T20:51:45.478Z,97159.22
2022-09-30T20:54:12.111Z,97164.75
2022-09-30T20:57:02.838Z,97172.16
2022-09-30T20:59:26.659Z,97174.41
2022-09-30T21:01:53.265Z,97165.63
2022-09-30T21:04:19.846Z,97162.88
2022-09-30T21:06:46.381Z,97171.13
2022-09-30T21:09:13.054Z,97164.66
2022-09-30T21:11:39.551Z,97168.97
2022-09-30T21:14:06.124Z,97172.16
2022-09-30T21:16:34.085Z,97178.78
2022-09-30T21:19:00.675Z,97184.34
2022-09-30T21:21:27.263Z,97183.91
2022-09-30T21:23:54.193Z,97174.31
2022-09-30T21:26:21.189Z,97171.84
2022-09-30T21:28:49.360Z,97178.53
2022-09-30T21:31:18.053Z,97165.19
2022-09-30T21:33:49.659Z,97160.16
2022-09-30T21:36:16.182Z,97163.13
2022-09-30T21:38:42.704Z,97160.03
2022-09-30T21:41:09.247Z,97162.78
2022-09-30T21:43:37.460Z,97165.84
2022-09-30T21:46:06.260Z,97161.56
2022-09-30T21:48:33.060Z,97161.56
2022-09-30T21:51:01.105Z,97159.88
2022-09-30T21:53:28.352Z,97169.28
2022-09-30T21:55:55.594Z,97165.91
2022-09-30T21:58:22.796Z,97163.44
2022-09-30T22:00:49.493Z,97164.91
2022-09-30T22:03:16.073Z,97164.06
2022-09-30T22:05:42.790Z,97167.94
2022-09-30T22:08:10.695Z,97162.88
2022-09-30T22:10:37.216Z,97164.25
2022-09-30T22:13:03.753Z,97169.28
2022-09-30T22:15:30.255Z,97162.16
2022-09-30T22:17:56.766Z,97176.72
2022-09-30T22:20:23.259Z,97178.88
2022-09-30T22:22:49.769Z,97177.22
2022-09-30T22:25:17.883Z,97181.13
2022-09-30T22:27:44.445Z,97186.41
2022-09-30T22:30:10.996Z,97176.25
2022-09-30T22:32:37.526Z,97171.66
2022-09-30T22:35:04.773Z,97174.06
2022-09-30T22:37:31.299Z,97176.03
2022-09-30T22:40:00.843Z,97180.97
2022-09-30T22:42:29.140Z,97190.44
2022-09-30T22:44:55.705Z,97204.81
2022-09-30T22:47:22.218Z,97217.38
2022-09-30T22:49:48.750Z,97217.81
2022-09-30T22:52:15.286Z,97216.97
2022-09-30T22:54:41.784Z,97222.34
2022-09-30T22:57:08.345Z,97223.19
2022-09-30T22:59:36.203Z,97234.44
2022-09-30T23:02:03.013Z,97237.41
2022-09-30T23:04:29.594Z,97236.25
2022-09-30T23:06:56.099Z,97242.38
2022-09-30T23:09:23.129Z,97249.19
2022-09-30T23:11:52.425Z,97245.91
2022-09-30T23:14:19.642Z,97251.13
2022-09-30T23:16:48.045Z,97254.97
2022-09-30T23:19:14.770Z,97256.56
2022-09-30T23:21:41.331Z,97266.91
2022-09-30T23:24:07.890Z,97265.28
2022-09-30T23:26:34.415Z,97258.63
2022-09-30T23:29:03.741Z,97263.84
2022-09-30T23:31:31.442Z,97264.31
2022-09-30T23:34:01.733Z,97268.41
2022-09-30T23:36:30.230Z,97267.84
2022-09-30T23:39:00.783Z,97262.34
2022-09-30T23:41:27.334Z,97257.91
2022-09-30T23:43:53.846Z,97268.31
2022-09-30T23:46:20.354Z,97271.03
2022-09-30T23:48:46.901Z,97273.13
2022-09-30T23:51:14.987Z,97262.69
2022-09-30T23:53:41.785Z,97266.78
2022-09-30T23:56:11.676Z,97265.38
2022-09-30T23:58:38.246Z,97261.56
